createdAt,value
2018-07-08T00:01:42.549Z,9.73
2018-07-08T00:04:11.645Z,10.53
2018-07-08T00:06:40.738Z,10.00
2018-07-08T00:09:09.760Z,7.03
2018-07-08T00:11:38.676Z,10.80
2018-07-08T00:14:07.533Z,9.50
2018-07-08T00:16:36.480Z,9.30
2018-07-08T00:19:05.256Z,8.77
2018-07-08T00:21:34.116Z,10.20
2018-07-08T00:24:03.243Z,8.20
2018-07-08T00:26:32.312Z,7.83
2018-07-08T00:29:01.193Z,9.63
2018-07-08T00:31:30.155Z,8.73
2018-07-08T00:33:58.925Z,7.23
2018-07-08T00:36:28.960Z,7.43
2018-07-08T00:38:57.855Z,9.20
2018-07-08T00:41:27.217Z,7.70
2018-07-08T00:43:56.085Z,7.60
2018-07-08T00:46:25.495Z,8.97
2018-07-08T00:48:55.061Z,8.43
2018-07-08T00:51:24.205Z,8.37
2018-07-08T00:53:53.043Z,5.77
2018-07-08T00:56:22.030Z,6.83
2018-07-08T00:58:51.034Z,7.33
2018-07-08T01:01:20.028Z,6.90
2018-07-08T01:03:48.958Z,7.30
2018-07-08T01:06:17.894Z,6.97
2018-07-08T01:08:46.824Z,9.10
2018-07-08T01:11:16.441Z,6.80
2018-07-08T01:13:45.275Z,6.57
2018-07-08T01:16:14.038Z,7.73
2018-07-08T01:18:42.738Z,7.10
2018-07-08T01:21:11.665Z,7.67
2018-07-08T01:23:40.602Z,8.13
2018-07-08T01:26:11.581Z,8.47
2018-07-08T01:28:41.593Z,11.17
2018-07-08T01:31:11.839Z,9.97
2018-07-08T01:33:40.885Z,6.83
2018-07-08T01:36:10.282Z,6.97
2018-07-08T01:38:39.251Z,7.23
2018-07-08T01:41:08.066Z,9.40
2018-07-08T01:43:37.006Z,7.53
2018-07-08T01:46:06.318Z,6.40
2018-07-08T01:48:35.284Z,7.00
2018-07-08T01:51:04.274Z,6.97
2018-07-08T01:53:32.830Z,5.63
2018-07-08T01:56:01.772Z,8.57
2018-07-08T01:58:30.738Z,7.53
2018-07-08T02:00:59.650Z,7.50
2018-07-08T02:03:28.802Z,5.77
2018-07-08T02:05:57.866Z,8.97
2018-07-08T02:08:26.922Z,7.83
2018-07-08T02:10:55.867Z,7.00
2018-07-08T02:13:25.365Z,11.37
2018-07-08T02:15:54.389Z,9.00
2018-07-08T02:18:23.329Z,8.27
2018-07-08T02:20:52.835Z,7.20
2018-07-08T02:23:21.896Z,7.33
2018-07-08T02:25:50.884Z,6.57
2018-07-08T02:28:19.664Z,9.43
2018-07-08T02:30:48.642Z,7.80
2018-07-08T02:33:17.900Z,7.77
2018-07-08T02:35:47.004Z,8.47
2018-07-08T02:38:16.250Z,11.07
2018-07-08T02:40:45.885Z,6.63
2018-07-08T02:43:15.025Z,7.73
2018-07-08T02:45:44.092Z,8.53
2018-07-08T02:48:13.175Z,7.07
2018-07-08T02:50:42.166Z,8.00
2018-07-08T02:53:11.147Z,7.33
2018-07-08T02:55:40.101Z,7.97
2018-07-08T02:58:08.952Z,8.83
2018-07-08T03:00:37.764Z,6.93
2018-07-08T03:03:06.715Z,7.83
2018-07-08T03:05:35.724Z,9.00
2018-07-08T03:08:04.985Z,6.97
2018-07-08T03:10:33.908Z,6.73
2018-07-08T03:13:02.920Z,8.50
2018-07-08T03:15:31.919Z,9.80
2018-07-08T03:18:01.040Z,9.40
2018-07-08T03:20:30.207Z,6.83
2018-07-08T03:22:59.265Z,9.10
2018-07-08T03:25:28.102Z,7.23
2018-07-08T03:27:57.059Z,6.80
2018-07-08T03:30:25.960Z,12.40
2018-07-08T03:32:56.060Z,9.13
2018-07-08T03:35:25.111Z,8.33
2018-07-08T03:37:54.179Z,6.20
2018-07-08T03:40:23.374Z,6.90
2018-07-08T03:42:52.501Z,7.37
2018-07-08T03:45:21.645Z,5.67
2018-07-08T03:47:50.761Z,7.30
2018-07-08T03:50:20.284Z,8.90
2018-07-08T03:52:50.954Z,7.37
2018-07-08T03:55:20.286Z,9.43
2018-07-08T03:57:49.519Z,7.97
2018-07-08T04:00:18.846Z,7.73
2018-07-08T04:02:48.130Z,9.50
2018-07-08T04:05:17.732Z,6.77
2018-07-08T04:07:46.960Z,10.93
2018-07-08T04:10:16.149Z,9.47
2018-07-08T04:12:45.166Z,6.23
2018-07-08T04:15:14.326Z,7.00
2018-07-08T04:17:43.530Z,7.50
2018-07-08T04:20:12.428Z,6.27
2018-07-08T04:22:46.047Z,7.50
2018-07-08T04:25:15.227Z,8.30
2018-07-08T04:27:44.783Z,9.43
2018-07-08T04:30:13.999Z,8.07
2018-07-08T04:32:43.105Z,7.17
2018-07-08T04:35:12.577Z,8.87
2018-07-08T04:37:41.853Z,8.80
2018-07-08T04:40:11.364Z,8.90
2018-07-08T04:42:40.606Z,6.10
2018-07-08T04:45:09.632Z,9.13
2018-07-08T04:47:38.735Z,7.87
2018-07-08T04:50:07.898Z,8.23
2018-07-08T04:52:36.776Z,10.67
2018-07-08T04:55:05.752Z,8.83
2018-07-08T04:57:34.789Z,7.07
2018-07-08T05:00:03.367Z,12.90
2018-07-08T05:02:32.637Z,9.53
2018-07-08T05:05:01.902Z,10.47
2018-07-08T05:07:30.713Z,8.43
2018-07-08T05:10:00.182Z,10.13
2018-07-08T05:12:31.747Z,11.23
2018-07-08T05:15:00.812Z,7.17
2018-07-08T05:17:29.965Z,8.60
2018-07-08T05:19:59.208Z,10.53
2018-07-08T05:22:28.064Z,9.47
2018-07-08T05:24:57.260Z,10.30
2018-07-08T05:27:26.692Z,8.00
2018-07-08T05:29:56.005Z,10.73
2018-07-08T05:32:25.154Z,9.67
2018-07-08T05:34:54.636Z,8.00
2018-07-08T05:37:24.167Z,10.33
2018-07-08T05:39:54.096Z,11.73
2018-07-08T05:42:23.204Z,8.70
2018-07-08T05:44:52.058Z,8.23
2018-07-08T05:47:20.981Z,8.77
2018-07-08T05:49:49.850Z,9.53
2018-07-08T05:52:18.693Z,10.00
2018-07-08T05:54:47.257Z,9.17
2018-07-08T05:57:16.195Z,9.33
2018-07-08T05:59:45.409Z,11.83
2018-07-08T06:02:14.730Z,6.50
2018-07-08T06:04:43.583Z,8.50
2018-07-08T06:07:12.438Z,8.63
2018-07-08T06:09:48.155Z,7.63
2018-07-08T06:12:19.740Z,8.60
2018-07-08T06:14:53.941Z,8.90
2018-07-08T06:17:23.412Z,7.73
2018-07-08T06:19:52.952Z,6.60
2018-07-08T06:22:21.890Z,6.40
2018-07-08T06:24:50.817Z,10.37
2018-07-08T06:27:21.075Z,9.17
2018-07-08T06:29:49.875Z,12.27
2018-07-08T06:32:18.797Z,8.87
2018-07-08T06:34:47.577Z,8.90
2018-07-08T06:37:17.959Z,7.53
2018-07-08T06:39:46.818Z,6.80
2018-07-08T06:42:15.671Z,7.20
2018-07-08T06:44:45.891Z,8.53
2018-07-08T06:47:15.123Z,4.80
2018-07-08T06:49:44.200Z,10.83
2018-07-08T06:52:12.920Z,7.50
2018-07-08T06:54:41.650Z,5.70
2018-07-08T06:57:10.437Z,6.17
2018-07-08T06:59:39.162Z,6.80
2018-07-08T07:02:08.016Z,7.97
2018-07-08T07:04:36.690Z,8.60
2018-07-08T07:07:05.466Z,7.20
2018-07-08T07:09:34.246Z,8.10
2018-07-08T07:12:02.955Z,5.13
2018-07-08T07:14:31.705Z,7.93
2018-07-08T07:17:00.864Z,6.23
2018-07-08T07:19:29.678Z,6.43
2018-07-08T07:21:58.643Z,7.63
2018-07-08T07:24:27.271Z,5.47
2018-07-08T07:26:56.012Z,5.83
2018-07-08T07:29:24.749Z,7.00
2018-07-08T07:31:53.413Z,7.30
2018-07-08T07:34:22.250Z,5.73
2018-07-08T07:36:51.033Z,8.03
2018-07-08T07:39:19.767Z,6.77
2018-07-08T07:41:48.596Z,6.67
2018-07-08T07:44:17.259Z,5.70
2018-07-08T07:46:47.238Z,6.07
2018-07-08T07:49:15.890Z,7.77
2018-07-08T07:51:44.669Z,7.77
2018-07-08T07:54:13.415Z,3.87
2018-07-08T07:56:42.199Z,6.60
2018-07-08T07:59:10.938Z,5.20
2018-07-08T08:01:39.710Z,7.53
2018-07-08T08:04:08.459Z,5.70
2018-07-08T08:06:37.252Z,6.53
2018-07-08T08:09:07.040Z,5.20
2018-07-08T08:11:35.756Z,4.20
2018-07-08T08:14:05.622Z,4.63
2018-07-08T08:16:34.353Z,5.27
2018-07-08T08:19:03.776Z,4.30
2018-07-08T08:21:32.483Z,8.43
2018-07-08T08:24:01.165Z,8.50
2018-07-08T08:26:30.399Z,5.27
2018-07-08T08:28:59.121Z,6.77
2018-07-08T08:31:28.026Z,6.73
2018-07-08T08:35:10.437Z,5.50
2018-07-08T08:37:41.158Z,8.57
2018-07-08T08:40:10.675Z,6.20
2018-07-08T08:42:39.511Z,6.53
2018-07-08T08:45:09.599Z,4.90
2018-07-08T08:47:38.379Z,4.10
2018-07-08T08:50:07.922Z,7.90
2018-07-08T08:52:36.703Z,4.33
2018-07-08T08:55:06.328Z,5.03
2018-07-08T08:57:35.016Z,6.10
2018-07-08T09:00:06.370Z,5.53
2018-07-08T09:02:35.033Z,5.53
2018-07-08T09:05:03.726Z,6.10
2018-07-08T09:07:32.369Z,4.37
2018-07-08T09:10:01.067Z,8.67
2018-07-08T09:12:29.943Z,6.77
2018-07-08T09:14:58.685Z,6.47
2018-07-08T09:17:27.364Z,5.33
2018-07-08T09:19:56.063Z,8.20
2018-07-08T09:22:24.886Z,6.10
2018-07-08T09:24:53.551Z,6.37
2018-07-08T09:27:22.235Z,4.97
2018-07-08T09:29:50.941Z,3.63
2018-07-08T09:32:19.709Z,6.57
2018-07-08T09:34:48.427Z,5.47
2018-07-08T09:37:17.127Z,5.23
2018-07-08T09:39:45.887Z,5.63
2018-07-08T09:42:15.423Z,6.80
2018-07-08T09:44:44.119Z,5.47
2018-07-08T09:47:13.565Z,8.23
2018-07-08T09:49:42.365Z,5.27
2018-07-08T09:52:11.090Z,8.20
2018-07-08T09:54:39.808Z,6.87
2018-07-08T09:57:08.578Z,7.23
2018-07-08T09:59:37.246Z,8.10
2018-07-08T10:02:06.030Z,5.93
2018-07-08T10:04:34.809Z,6.47
2018-07-08T10:07:03.484Z,5.87
2018-07-08T10:09:32.241Z,6.13
2018-07-08T10:12:01.031Z,6.13
2018-07-08T10:14:29.827Z,7.80
2018-07-08T10:16:58.538Z,6.00
2018-07-08T10:19:27.381Z,5.87
2018-07-08T10:21:56.020Z,6.30
2018-07-08T10:24:24.759Z,7.33
2018-07-08T10:28:09.240Z,5.40
2018-07-08T10:30:37.950Z,5.70
2018-07-08T10:33:06.680Z,4.90
2018-07-08T10:35:46.485Z,3.70
2018-07-08T10:38:16.030Z,5.37
2018-07-08T10:40:45.254Z,5.00
2018-07-08T10:43:14.049Z,6.40
2018-07-08T10:45:42.828Z,4.23
2018-07-08T10:48:11.537Z,5.33
2018-07-08T10:50:40.255Z,3.87
2018-07-08T10:53:09.067Z,6.43
2018-07-08T10:55:37.799Z,3.63
2018-07-08T10:58:07.293Z,6.30
2018-07-08T11:00:36.001Z,4.90
2018-07-08T11:03:04.754Z,7.10
2018-07-08T11:05:33.523Z,5.80
2018-07-08T11:08:02.261Z,6.13
2018-07-08T11:10:30.986Z,4.87
2018-07-08T11:12:59.669Z,4.10
2018-07-08T11:15:28.378Z,5.87
2018-07-08T11:17:57.063Z,5.40
2018-07-08T11:20:25.779Z,8.23
2018-07-08T11:22:54.558Z,5.77
2018-07-08T11:25:23.276Z,5.33
2018-07-08T11:27:51.988Z,6.17
2018-07-08T11:30:20.630Z,4.93
2018-07-08T11:32:49.284Z,4.63
2018-07-08T11:35:17.994Z,6.17
2018-07-08T11:37:46.696Z,4.17
2018-07-08T11:40:15.385Z,6.03
2018-07-08T11:42:44.101Z,3.97
2018-07-08T11:45:12.943Z,4.93
2018-07-08T11:47:41.692Z,7.67
2018-07-08T11:50:10.401Z,5.77
2018-07-08T11:52:39.117Z,8.67
2018-07-08T11:55:07.957Z,5.17
2018-07-08T11:57:36.641Z,3.77
2018-07-08T12:00:05.967Z,5.10
2018-07-08T12:02:34.691Z,4.00
2018-07-08T12:05:03.553Z,5.20
2018-07-08T12:07:32.348Z,4.20
2018-07-08T12:10:01.053Z,7.03
2018-07-08T12:12:29.738Z,3.17
2018-07-08T12:14:58.408Z,4.00
2018-07-08T12:17:27.139Z,5.40
2018-07-08T12:19:56.054Z,5.23
2018-07-08T12:22:24.755Z,4.00
2018-07-08T12:24:53.452Z,5.67
2018-07-08T12:27:22.133Z,3.17
2018-07-08T12:29:51.027Z,3.50
2018-07-08T12:32:19.727Z,2.30
2018-07-08T12:34:48.382Z,3.23
2018-07-08T12:37:17.102Z,5.50
2018-07-08T12:39:46.446Z,3.10
2018-07-08T12:42:15.165Z,3.27
2018-07-08T12:44:44.079Z,2.83
2018-07-08T12:47:12.602Z,4.03
2018-07-08T12:49:41.376Z,3.00
2018-07-08T12:52:10.759Z,4.33
2018-07-08T12:54:39.072Z,4.53
2018-07-08T12:57:07.734Z,4.13
2018-07-08T12:59:36.028Z,5.20
2018-07-08T13:02:04.731Z,5.57
2018-07-08T13:04:33.372Z,2.90
2018-07-08T13:07:02.018Z,3.00
2018-07-08T13:09:30.647Z,3.00
2018-07-08T13:11:59.322Z,2.93
2018-07-08T13:14:28.573Z,2.57
2018-07-08T13:16:57.291Z,2.43
2018-07-08T13:19:26.003Z,2.47
2018-07-08T13:21:55.012Z,2.23
2018-07-08T13:24:24.849Z,4.07
2018-07-08T13:26:54.512Z,3.67
2018-07-08T13:29:23.218Z,2.33
2018-07-08T13:31:51.990Z,3.07
2018-07-08T13:34:20.653Z,4.80
2018-07-08T13:36:50.086Z,4.20
2018-07-08T13:39:18.747Z,2.17
2018-07-08T13:41:47.484Z,8.17
2018-07-08T13:44:17.184Z,2.80
2018-07-08T13:46:45.846Z,3.57
2018-07-08T13:49:14.727Z,3.67
2018-07-08T13:51:43.418Z,5.03
2018-07-08T13:54:12.988Z,2.90
2018-07-08T13:56:41.689Z,4.80
2018-07-08T13:59:10.675Z,3.43
2018-07-08T14:01:39.342Z,6.00
2018-07-08T14:04:08.076Z,3.30
2018-07-08T14:06:37.024Z,5.60
2018-07-08T14:09:06.929Z,4.40
2018-07-08T14:11:35.307Z,3.47
2018-07-08T14:14:04.020Z,3.17
2018-07-08T14:16:32.764Z,2.50
2018-07-08T14:19:02.280Z,3.63
2018-07-08T14:21:30.992Z,5.57
2018-07-08T14:23:59.756Z,3.70
2018-07-08T14:26:28.546Z,4.47
2018-07-08T14:28:56.966Z,3.23
2018-07-08T14:31:25.756Z,3.97
2018-07-08T14:33:54.509Z,4.33
2018-07-08T14:36:23.183Z,3.17
2018-07-08T14:38:51.865Z,2.73
2018-07-08T14:41:20.597Z,2.37
2018-07-08T14:43:49.336Z,2.73
2018-07-08T14:46:18.097Z,3.50
2018-07-08T14:48:46.875Z,5.43
2018-07-08T14:51:15.599Z,2.30
2018-07-08T14:53:44.596Z,5.10
2018-07-08T14:56:13.312Z,2.07
2018-07-08T14:58:42.086Z,3.40
2018-07-08T15:01:10.788Z,2.60
2018-07-08T15:03:39.550Z,5.03
2018-07-08T15:06:08.246Z,2.30
2018-07-08T15:08:37.044Z,3.03
2018-07-08T15:11:05.944Z,3.17
2018-07-08T15:13:34.659Z,3.67
2018-07-08T15:16:03.562Z,4.37
2018-07-08T15:18:32.844Z,2.63
2018-07-08T15:21:01.626Z,4.63
2018-07-08T15:23:30.699Z,2.73
2018-07-08T15:25:59.633Z,3.43
2018-07-08T15:28:28.459Z,3.27
2018-07-08T15:30:57.093Z,4.60
2018-07-08T15:33:26.051Z,3.63
2018-07-08T15:35:54.708Z,2.80
2018-07-08T15:38:23.407Z,3.63
2018-07-08T15:40:52.242Z,5.10
2018-07-08T15:43:20.962Z,4.17
2018-07-08T15:45:49.699Z,3.63
2018-07-08T15:48:18.444Z,3.83
2018-07-08T15:50:47.161Z,3.73
2018-07-08T15:53:15.892Z,2.47
2018-07-08T15:55:45.286Z,3.30
2018-07-08T15:58:14.107Z,5.57
2018-07-08T16:00:42.816Z,2.00
2018-07-08T16:03:11.502Z,2.17
2018-07-08T16:05:40.207Z,1.90
2018-07-08T16:08:09.001Z,2.80
2018-07-08T16:10:37.662Z,2.73
2018-07-08T16:13:06.498Z,2.00
2018-07-08T16:15:34.828Z,2.93
2018-07-08T16:18:03.671Z,3.13
2018-07-08T16:20:32.426Z,4.40
2018-07-08T16:23:01.113Z,8.87
2018-07-08T16:25:29.976Z,3.10
2018-07-08T16:27:58.666Z,3.23
2018-07-08T16:30:27.441Z,5.93
2018-07-08T16:32:56.266Z,3.30
2018-07-08T16:35:25.011Z,3.27
2018-07-08T16:37:53.703Z,4.73
2018-07-08T16:40:22.518Z,5.80
2018-07-08T16:42:51.269Z,3.80
2018-07-08T16:45:19.971Z,3.80
2018-07-08T16:47:48.727Z,3.67
2018-07-08T16:50:17.440Z,4.17
2018-07-08T16:52:46.257Z,3.80
2018-07-08T16:55:14.994Z,5.00
2018-07-08T16:57:43.750Z,3.30
2018-07-08T17:00:13.151Z,1.90
2018-07-08T17:02:41.858Z,2.93
2018-07-08T17:05:10.568Z,3.57
2018-07-08T17:07:39.278Z,2.27
2018-07-08T17:10:07.960Z,4.80
2018-07-08T17:12:36.738Z,2.10
2018-07-08T17:15:05.504Z,3.47
2018-07-08T17:17:33.966Z,2.67
2018-07-08T17:20:02.717Z,3.20
2018-07-08T17:22:31.433Z,4.20
2018-07-08T17:25:00.609Z,3.40
2018-07-08T17:27:29.405Z,4.70
2018-07-08T17:29:58.103Z,4.10
2018-07-08T17:32:26.922Z,5.23
2018-07-08T17:34:55.637Z,4.17
2018-07-08T17:37:24.331Z,4.30
2018-07-08T17:39:53.234Z,3.57
2018-07-08T17:42:21.857Z,4.57
2018-07-08T17:44:50.590Z,5.57
2018-07-08T17:47:19.348Z,4.20
2018-07-08T17:49:48.131Z,6.40
2018-07-08T17:52:16.776Z,4.80
2018-07-08T17:54:45.185Z,2.90
2018-07-08T17:57:13.861Z,4.57
2018-07-08T17:59:42.646Z,3.47
2018-07-08T18:02:11.392Z,4.33
2018-07-08T18:04:40.206Z,4.67
2018-07-08T18:07:09.002Z,4.63
2018-07-08T18:09:37.907Z,3.43
2018-07-08T18:12:06.912Z,2.70
2018-07-08T18:14:35.597Z,4.10
2018-07-08T18:17:04.315Z,3.87
2018-07-08T18:19:32.983Z,4.63
2018-07-08T18:22:01.673Z,5.50
2018-07-08T18:24:30.388Z,3.53
2018-07-08T18:26:59.055Z,4.43
2018-07-08T18:29:27.927Z,3.97
2018-07-08T18:31:56.664Z,4.03
2018-07-08T18:34:25.391Z,4.50
2018-07-08T18:36:54.904Z,5.00
2018-07-08T18:39:23.625Z,3.40
2018-07-08T18:41:52.353Z,6.33
2018-07-08T18:44:21.026Z,3.77
2018-07-08T18:46:50.339Z,2.73
2018-07-08T18:49:19.052Z,4.73
2018-07-08T18:51:47.758Z,2.97
2018-07-08T18:54:16.540Z,4.97
2018-07-08T18:56:45.294Z,4.67
2018-07-08T18:59:14.685Z,4.13
2018-07-08T19:01:43.319Z,4.73
2018-07-08T19:04:12.017Z,4.37
2018-07-08T19:06:40.789Z,2.73
2018-07-08T19:09:09.473Z,4.77
2018-07-08T19:11:38.233Z,3.60
2018-07-08T19:14:07.069Z,4.17
2018-07-08T19:16:35.805Z,4.80
2018-07-08T19:19:04.538Z,3.43
2018-07-08T19:21:33.339Z,3.77
2018-07-08T19:24:02.222Z,3.50
2018-07-08T19:26:31.712Z,4.80
2018-07-08T19:29:00.987Z,3.10
2018-07-08T19:31:29.730Z,4.63
2018-07-08T19:33:58.900Z,4.57
2018-07-08T19:36:27.749Z,4.00
2018-07-08T19:38:56.643Z,3.27
2018-07-08T19:41:25.414Z,3.63
2018-07-08T19:43:56.765Z,3.67
2018-07-08T19:46:25.682Z,5.43
2018-07-08T19:48:55.063Z,3.40
2018-07-08T19:51:24.504Z,5.60
2018-07-08T19:53:53.201Z,5.10
2018-07-08T19:56:21.966Z,6.80
2018-07-08T19:58:50.826Z,4.30
2018-07-08T20:01:19.591Z,7.53
2018-07-08T20:03:48.528Z,6.03
2018-07-08T20:06:17.292Z,5.13
2018-07-08T20:08:46.098Z,5.03
2018-07-08T20:11:14.986Z,9.50
2018-07-08T20:13:43.770Z,5.37
2018-07-08T20:16:12.545Z,6.03
2018-07-08T20:18:41.390Z,6.00
2018-07-08T20:21:10.994Z,6.67
2018-07-08T20:23:39.809Z,6.13
2018-07-08T20:26:08.597Z,6.00
2018-07-08T20:28:37.377Z,7.40
2018-07-08T20:31:06.195Z,6.67
2018-07-08T20:33:35.558Z,4.73
2018-07-08T20:36:04.324Z,5.03
2018-07-08T20:38:33.767Z,6.53
2018-07-08T20:41:03.421Z,5.80
2018-07-08T20:43:32.347Z,7.03
2018-07-08T20:46:01.750Z,5.53
2018-07-08T20:48:30.168Z,6.37
2018-07-08T20:50:58.916Z,7.23
2018-07-08T20:53:27.784Z,5.00
2018-07-08T20:55:56.603Z,5.37
2018-07-08T20:58:25.478Z,3.60
2018-07-08T21:00:54.324Z,4.47
2018-07-08T21:03:23.758Z,6.70
2018-07-08T21:05:52.677Z,6.07
2018-07-08T21:08:21.531Z,7.23
2018-07-08T21:10:50.325Z,5.83
2018-07-08T21:13:19.029Z,7.97
2018-07-08T21:15:47.789Z,8.27
2018-07-08T21:18:16.962Z,4.47
2018-07-08T21:20:45.739Z,4.87
2018-07-08T21:23:14.771Z,6.43
2018-07-08T21:25:44.685Z,5.33
2018-07-08T21:28:13.566Z,4.93
2018-07-08T21:30:42.752Z,4.77
2018-07-08T21:33:11.732Z,5.60
2018-07-08T21:35:40.548Z,4.80
2018-07-08T21:38:09.306Z,6.57
2018-07-08T21:40:38.972Z,6.27
2018-07-08T21:43:07.762Z,8.07
2018-07-08T21:45:36.563Z,7.10
2018-07-08T21:48:05.407Z,5.63
2018-07-08T21:50:34.147Z,4.57
2018-07-08T21:53:02.911Z,8.63
2018-07-08T21:55:31.773Z,6.07
2018-07-08T21:58:00.465Z,5.73
2018-07-08T22:00:32.131Z,7.80
2018-07-08T22:03:01.287Z,6.27
2018-07-08T22:05:31.310Z,6.93
2018-07-08T22:08:05.934Z,8.30
2018-07-08T22:10:34.682Z,7.97
2018-07-08T22:13:04.067Z,5.50
2018-07-08T22:15:32.802Z,6.33
2018-07-08T22:18:01.489Z,8.50
2018-07-08T22:20:30.146Z,8.90
2018-07-08T22:22:58.811Z,8.00
2018-07-08T22:25:27.534Z,7.07
2018-07-08T22:27:56.246Z,7.40
2018-07-08T22:30:24.969Z,5.63
2018-07-08T22:32:53.721Z,6.63
2018-07-08T22:35:22.448Z,7.47
2018-07-08T22:37:51.219Z,9.07
2018-07-08T22:40:19.877Z,7.47
2018-07-08T22:42:48.563Z,9.87
2018-07-08T22:45:17.283Z,9.00
2018-07-08T22:47:45.977Z,8.97
2018-07-08T22:50:14.680Z,12.30
2018-07-08T22:52:43.477Z,6.90
2018-07-08T22:55:12.213Z,8.40
2018-07-08T22:57:40.917Z,10.90
2018-07-08T23:00:20.752Z,9.63
2018-07-08T23:02:54.354Z,8.33
2018-07-08T23:05:23.074Z,9.73
2018-07-08T23:07:51.841Z,6.80
2018-07-08T23:10:20.606Z,7.87
2018-07-08T23:12:50.084Z,7.63
2018-07-08T23:15:18.930Z,8.13
2018-07-08T23:17:47.664Z,8.97
2018-07-08T23:20:16.653Z,13.10
2018-07-08T23:22:55.911Z,11.13
2018-07-08T23:25:24.646Z,9.33
2018-07-08T23:27:53.781Z,9.17
2018-07-08T23:30:22.581Z,7.53
2018-07-08T23:32:51.383Z,11.57
2018-07-08T23:35:20.091Z,9.00
2018-07-08T23:37:48.953Z,11.73
2018-07-08T23:40:17.678Z,9.07
2018-07-08T23:42:46.461Z,8.00
2018-07-08T23:45:19.241Z,10.53
2018-07-08T23:47:48.645Z,7.97
2018-07-08T23:50:17.370Z,10.83
2018-07-08T23:52:46.087Z,11.97
2018-07-08T23:55:14.732Z,9.67
2018-07-08T23:57:43.429Z,8.83
